sensor_id;sensor_type;location;lat;lon;timestamp;P1;durP1;ratioP1;P2;durP2;ratioP2
19223;SDS011;9746;47.180;9.776;2022-09-01T05:21:51;0.10;;;0.10;;
19223;SDS011;9746;47.180;9.776;2022-09-01T05:24:22;0.10;;;0.10;;
19223;SDS011;9746;47.180;9.776;2022-09-01T05:26:59;0.10;;;0.10;;
19223;SDS011;9746;47.180;9.776;2022-09-01T05:29:27;0.10;;;0.10;;
19223;SDS011;9746;47.180;9.776;2022-09-01T05:31:54;0.20;;;0.20;;
19223;SDS011;9746;47.180;9.776;2022-09-01T05:34:23;0.10;;;0.10;;
19223;SDS011;9746;47.180;9.776;2022-09-01T05:36:54;0.10;;;0.10;;
19223;SDS011;9746;47.180;9.776;2022-09-01T05:39:23;0.10;;;0.10;;
19223;SDS011;9746;47.180;9.776;2022-09-01T05:41:51;0.10;;;0.10;;
19223;SDS011;9746;47.180;9.776;2022-09-01T05:44:19;0.10;;;0.10;;
19223;SDS011;9746;47.180;9.776;2022-09-01T05:46:47;0.10;;;0.10;;
19223;SDS011;9746;47.180;9.776;2022-09-01T05:49:17;0.10;;;0.10;;
19223;SDS011;9746;47.180;9.776;2022-09-01T05:51:45;0.10;;;0.10;;
19223;SDS011;9746;47.180;9.776;2022-09-01T05:54:20;0.10;;;0.10;;
19223;SDS011;9746;47.180;9.776;2022-09-01T05:56:51;0.17;;;0.17;;
19223;SDS011;9746;47.180;9.776;2022-09-01T05:59:19;0.10;;;0.10;;
19223;SDS011;9746;47.180;9.776;2022-09-01T06:01:48;0.10;;;0.10;;
19223;SDS011;9746;47.180;9.776;2022-09-01T06:04:17;0.10;;;0.10;;
19223;SDS011;9746;47.180;9.776;2022-09-01T06:06:46;0.10;;;0.10;;
19223;SDS011;9746;47.180;9.776;2022-09-01T06:09:15;0.10;;;0.10;;
19223;SDS011;9746;47.180;9.776;2022-09-01T06:11:46;0.10;;;0.10;;
19223;SDS011;9746;47.180;9.776;2022-09-01T06:14:15;0.15;;;0.15;;
19223;SDS011;9746;47.180;9.776;2022-09-01T06:16:43;0.10;;;0.10;;
19223;SDS011;9746;47.180;9.776;2022-09-01T06:19:11;0.10;;;0.10;;
19223;SDS011;9746;47.180;9.776;2022-09-01T06:21:38;0.10;;;0.10;;
19223;SDS011;9746;47.180;9.776;2022-09-01T06:24:06;0.10;;;0.10;;
19223;SDS011;9746;47.180;9.776;2022-09-01T06:26:34;0.13;;;0.13;;
19223;SDS011;9746;47.180;9.776;2022-09-01T06:29:06;0.10;;;0.10;;
19223;SDS011;9746;47.180;9.776;2022-09-01T06:31:39;0.20;;;0.20;;
19223;SDS011;9746;47.180;9.776;2022-09-01T06:34:08;0.10;;;0.10;;
19223;SDS011;9746;47.180;9.776;2022-09-01T06:36:38;0.10;;;0.10;;
19223;SDS011;9746;47.180;9.776;2022-09-01T06:39:07;0.10;;;0.10;;
19223;SDS011;9746;47.180;9.776;2022-09-01T06:41:43;0.10;;;0.10;;
19223;SDS011;9746;47.180;9.776;2022-09-01T06:44:18;0.20;;;0.20;;
19223;SDS011;9746;47.180;9.776;2022-09-01T06:46:47;0.10;;;0.10;;
19223;SDS011;9746;47.180;9.776;2022-09-01T06:49:15;0.10;;;0.10;;
19223;SDS011;9746;47.180;9.776;2022-09-01T06:51:43;0.10;;;0.10;;
19223;SDS011;9746;47.180;9.776;2022-09-01T06:54:14;0.20;;;0.20;;
19223;SDS011;9746;47.180;9.776;2022-09-01T06:56:42;0.20;;;0.20;;
19223;SDS011;9746;47.180;9.776;2022-09-01T06:59:09;0.10;;;0.10;;
19223;SDS011;9746;47.180;9.776;2022-09-01T07:01:41;0.10;;;0.10;;
19223;SDS011;9746;47.180;9.776;2022-09-01T07:04:09;0.10;;;0.10;;
19223;SDS011;9746;47.180;9.776;2022-09-01T07:06:38;0.10;;;0.10;;
19223;SDS011;9746;47.180;9.776;2022-09-01T07:09:06;0.10;;;0.10;;
19223;SDS011;9746;47.180;9.776;2022-09-01T07:11:33;0.10;;;0.10;;
19223;SDS011;9746;47.180;9.776;2022-09-01T07:14:02;0.10;;;0.10;;
19223;SDS011;9746;47.180;9.776;2022-09-01T07:16:31;0.10;;;0.10;;
19223;SDS011;9746;47.180;9.776;2022-09-01T07:19:06;0.10;;;0.10;;
19223;SDS011;9746;47.180;9.776;2022-09-01T07:21:37;0.10;;;0.10;;
19223;SDS011;9746;47.180;9.776;2022-09-01T07:24:05;0.15;;;0.15;;
19223;SDS011;9746;47.180;9.776;2022-09-01T07:26:33;0.10;;;0.10;;
19223;SDS011;9746;47.180;9.776;2022-09-01T07:29:01;0.10;;;0.10;;
19223;SDS011;9746;47.180;9.776;2022-09-01T07:31:31;0.10;;;0.10;;
19223;SDS011;9746;47.180;9.776;2022-09-01T07:34:02;0.10;;;0.10;;
19223;SDS011;9746;47.180;9.776;2022-09-01T07:36:38;0.10;;;0.10;;
19223;SDS011;9746;47.180;9.776;2022-09-01T07:39:07;0.10;;;0.10;;
19223;SDS011;9746;47.180;9.776;2022-09-01T07:41:36;0.10;;;0.10;;
19223;SDS011;9746;47.180;9.776;2022-09-01T07:44:06;0.10;;;0.10;;
19223;SDS011;9746;47.180;9.776;2022-09-01T07:46:38;0.10;;;0.10;;
19223;SDS011;9746;47.180;9.776;2022-09-01T07:49:07;0.10;;;0.10;;
19223;SDS011;9746;47.180;9.776;2022-09-01T07:51:35;0.20;;;0.20;;
19223;SDS011;9746;47.180;9.776;2022-09-01T07:54:04;0.20;;;0.20;;
19223;SDS011;9746;47.180;9.776;2022-09-01T07:56:32;0.10;;;0.10;;
19223;SDS011;9746;47.180;9.776;2022-09-01T07:59:00;0.10;;;0.10;;
19223;SDS011;9746;47.180;9.776;2022-09-01T08:01:28;0.10;;;0.10;;
19223;SDS011;9746;47.180;9.776;2022-09-01T08:03:57;0.10;;;0.10;;
19223;SDS011;9746;47.180;9.776;2022-09-01T08:06:26;0.10;;;0.10;;
19223;SDS011;9746;47.180;9.776;2022-09-01T08:08:55;0.10;;;0.10;;
19223;SDS011;9746;47.180;9.776;2022-09-01T08:11:26;0.10;;;0.10;;
19223;SDS011;9746;47.180;9.776;2022-09-01T08:13:55;0.10;;;0.10;;
19223;SDS011;9746;47.180;9.776;2022-09-01T08:16:25;0.10;;;0.10;;
19223;SDS011;9746;47.180;9.776;2022-09-01T08:18:53;0.10;;;0.10;;
19223;SDS011;9746;47.180;9.776;2022-09-01T08:21:20;0.10;;;0.10;;
19223;SDS011;9746;47.180;9.776;2022-09-01T08:23:49;0.10;;;0.10;;
19223;SDS011;9746;47.180;9.776;2022-09-01T08:26:18;0.10;;;0.10;;
19223;SDS011;9746;47.180;9.776;2022-09-01T08:28:48;0.10;;;0.10;;
19223;SDS011;9746;47.180;9.776;2022-09-01T08:31:17;0.10;;;0.10;;
19223;SDS011;9746;47.180;9.776;2022-09-01T08:33:46;0.10;;;0.10;;
19223;SDS011;9746;47.180;9.776;2022-09-01T08:36:15;0.10;;;0.10;;
19223;SDS011;9746;47.180;9.776;2022-09-01T08:38:43;0.10;;;0.10;;
19223;SDS011;9746;47.180;9.776;2022-09-01T08:41:15;0.10;;;0.10;;
19223;SDS011;9746;47.180;9.776;2022-09-01T08:43:51;0.10;;;0.10;;
19223;SDS011;9746;47.180;9.776;2022-09-01T08:46:26;0.10;;;0.10;;
19223;SDS011;9746;47.180;9.776;2022-09-01T08:48:56;0.10;;;0.10;;
19223;SDS011;9746;47.180;9.776;2022-09-01T08:51:26;0.10;;;0.10;;
19223;SDS011;9746;47.180;9.776;2022-09-01T08:54:05;0.10;;;0.10;;
19223;SDS011;9746;47.180;9.776;2022-09-01T08:56:39;0.10;;;0.10;;
19223;SDS011;9746;47.180;9.776;2022-09-01T08:59:08;0.10;;;0.10;;
19223;SDS011;9746;47.180;9.776;2022-09-01T09:01:40;0.10;;;0.10;;
19223;SDS011;9746;47.180;9.776;2022-09-01T09:04:19;0.10;;;0.10;;
19223;SDS011;9746;47.180;9.776;2022-09-01T09:07:00;0.10;;;0.10;;
19223;SDS011;9746;47.180;9.776;2022-09-01T09:09:36;0.10;;;0.10;;
19223;SDS011;9746;47.180;9.776;2022-09-01T09:15:04;0.10;;;0.10;;
19223;SDS011;9746;47.180;9.776;2022-09-01T09:17:42;0.10;;;0.10;;
19223;SDS011;9746;47.180;9.776;2022-09-01T09:20:15;0.10;;;0.10;;
19223;SDS011;9746;47.180;9.776;2022-09-01T09:22:43;0.10;;;0.10;;
19223;SDS011;9746;47.180;9.776;2022-09-01T09:25:15;0.10;;;0.10;;
19223;SDS011;9746;47.180;9.776;2022-09-01T09:27:43;0.10;;;0.10;;
19223;SDS011;9746;47.180;9.776;2022-09-01T09:30:14;0.10;;;0.10;;
19223;SDS011;9746;47.180;9.776;2022-09-01T09:32:49;0.10;;;0.10;;
19223;SDS011;9746;47.180;9.776;2022-09-01T09:35:20;0.10;;;0.10;;
19223;SDS011;9746;47.180;9.776;2022-09-01T09:37:49;0.10;;;0.10;;
19223;SDS011;9746;47.180;9.776;2022-09-01T09:40:18;0.10;;;0.10;;
19223;SDS011;9746;47.180;9.776;2022-09-01T09:43:01;0.10;;;0.10;;
19223;SDS011;9746;47.180;9.776;2022-09-01T09:45:34;0.10;;;0.10;;
19223;SDS011;9746;47.180;9.776;2022-09-01T09:48:04;0.10;;;0.10;;
19223;SDS011;9746;47.180;9.776;2022-09-01T09:50:35;0.10;;;0.10;;
19223;SDS011;9746;47.180;9.776;2022-09-01T09:53:14;0.10;;;0.10;;
19223;SDS011;9746;47.180;9.776;2022-09-01T09:55:53;0.10;;;0.10;;
19223;SDS011;9746;47.180;9.776;2022-09-01T09:58:26;0.10;;;0.10;;
19223;SDS011;9746;47.180;9.776;2022-09-01T10:01:06;0.10;;;0.10;;
19223;SDS011;9746;47.180;9.776;2022-09-01T10:03:42;0.10;;;0.10;;
19223;SDS011;9746;47.180;9.776;2022-09-01T10:06:15;0.10;;;0.10;;
19223;SDS011;9746;47.180;9.776;2022-09-01T10:08:57;0.10;;;0.10;;
19223;SDS011;9746;47.180;9.776;2022-09-01T10:11:27;0.10;;;0.10;;
19223;SDS011;9746;47.180;9.776;2022-09-01T10:13:58;0.10;;;0.10;;
19223;SDS011;9746;47.180;9.776;2022-09-01T10:16:28;0.10;;;0.10;;
19223;SDS011;9746;47.180;9.776;2022-09-01T10:18:58;0.10;;;0.10;;
19223;SDS011;9746;47.180;9.776;2022-09-01T10:21:28;0.10;;;0.10;;
19223;SDS011;9746;47.180;9.776;2022-09-01T10:23:58;0.10;;;0.10;;
19223;SDS011;9746;47.180;9.776;2022-09-01T10:26:30;0.10;;;0.10;;
19223;SDS011;9746;47.180;9.776;2022-09-01T10:29:05;0.10;;;0.10;;
19223;SDS011;9746;47.180;9.776;2022-09-01T10:31:36;0.10;;;0.10;;
19223;SDS011;9746;47.180;9.776;2022-09-01T10:34:05;0.10;;;0.10;;
19223;SDS011;9746;47.180;9.776;2022-09-01T10:36:38;0.10;;;0.10;;
19223;SDS011;9746;47.180;9.776;2022-09-01T10:39:09;0.10;;;0.10;;
19223;SDS011;9746;47.180;9.776;2022-09-01T10:41:51;0.10;;;0.10;;
19223;SDS011;9746;47.180;9.776;2022-09-01T10:44:22;0.10;;;0.10;;
19223;SDS011;9746;47.180;9.776;2022-09-01T10:46:56;0.10;;;0.10;;
19223;SDS011;9746;47.180;9.776;2022-09-01T10:58:23;0.10;;;0.10;;
19223;SDS011;9746;47.180;9.776;2022-09-01T11:01:10;0.10;;;0.10;;
19223;SDS011;9746;47.180;9.776;2022-09-01T11:06:43;0.05;;;0.05;;
19223;SDS011;9746;47.180;9.776;2022-09-01T11:09:31;0.00;;;0.00;;
19223;SDS011;9746;47.180;9.776;2022-09-01T11:14:57;0.10;;;0.10;;
19223;SDS011;9746;47.180;9.776;2022-09-01T11:17:26;0.10;;;0.10;;
19223;SDS011;9746;47.180;9.776;2022-09-01T11:19:59;0.10;;;0.10;;
19223;SDS011;9746;47.180;9.776;2022-09-01T11:22:34;0.00;;;0.00;;
19223;SDS011;9746;47.180;9.776;2022-09-01T11:31:25;0.10;;;0.10;;
19223;SDS011;9746;47.180;9.776;2022-09-01T11:34:12;0.00;;;0.00;;
19223;SDS011;9746;47.180;9.776;2022-09-01T11:37:04;0.00;;;0.00;;
19223;SDS011;9746;47.180;9.776;2022-09-01T11:39:41;0.00;;;0.00;;
19223;SDS011;9746;47.180;9.776;2022-09-01T11:42:18;0.00;;;0.00;;
19223;SDS011;9746;47.180;9.776;2022-09-01T11:44:48;0.00;;;0.00;;
19223;SDS011;9746;47.180;9.776;2022-09-01T11:47:23;0.00;;;0.00;;
19223;SDS011;9746;47.180;9.776;2022-09-01T11:49:54;0.00;;;0.00;;
19223;SDS011;9746;47.180;9.776;2022-09-01T11:52:26;0.00;;;0.00;;
19223;SDS011;9746;47.180;9.776;2022-09-01T11:54:56;0.00;;;0.00;;
19223;SDS011;9746;47.180;9.776;2022-09-01T11:57:26;0.00;;;0.00;;
19223;SDS011;9746;47.180;9.776;2022-09-01T11:59:57;0.00;;;0.00;;
19223;SDS011;9746;47.180;9.776;2022-09-01T12:02:27;0.00;;;0.00;;
19223;SDS011;9746;47.180;9.776;2022-09-01T12:04:58;0.00;;;0.00;;
19223;SDS011;9746;47.180;9.776;2022-09-01T12:10:16;0.00;;;0.00;;
19223;SDS011;9746;47.180;9.776;2022-09-01T12:12:46;0.00;;;0.00;;
19223;SDS011;9746;47.180;9.776;2022-09-01T12:15:18;0.00;;;0.00;;
19223;SDS011;9746;47.180;9.776;2022-09-01T12:17:48;0.00;;;0.00;;
19223;SDS011;9746;47.180;9.776;2022-09-01T12:20:25;0.00;;;0.00;;
19223;SDS011;9746;47.180;9.776;2022-09-01T12:22:57;0.00;;;0.00;;
19223;SDS011;9746;47.180;9.776;2022-09-01T12:25:27;0.00;;;0.00;;
19223;SDS011;9746;47.180;9.776;2022-09-01T12:27:56;0.00;;;0.00;;
19223;SDS011;9746;47.180;9.776;2022-09-01T12:30:25;0.00;;;0.00;;
19223;SDS011;9746;47.180;9.776;2022-09-01T12:32:53;0.00;;;0.00;;
19223;SDS011;9746;47.180;9.776;2022-09-01T12:35:24;0.00;;;0.00;;
19223;SDS011;9746;47.180;9.776;2022-09-01T12:38:12;0.00;;;0.00;;
19223;SDS011;9746;47.180;9.776;2022-09-01T12:40:58;0.00;;;0.00;;
19223;SDS011;9746;47.180;9.776;2022-09-01T12:43:27;0.00;;;0.00;;
19223;SDS011;9746;47.180;9.776;2022-09-01T12:45:59;0.00;;;0.00;;
19223;SDS011;9746;47.180;9.776;2022-09-01T12:48:29;0.00;;;0.00;;
19223;SDS011;9746;47.180;9.776;2022-09-01T12:50:58;0.00;;;0.00;;
19223;SDS011;9746;47.180;9.776;2022-09-01T12:53:28;0.00;;;0.00;;
19223;SDS011;9746;47.180;9.776;2022-09-01T12:56:03;0.00;;;0.00;;
19223;SDS011;9746;47.180;9.776;2022-09-01T12:58:48;0.00;;;0.00;;
19223;SDS011;9746;47.180;9.776;2022-09-01T13:01:29;0.00;;;0.00;;
19223;SDS011;9746;47.180;9.776;2022-09-01T13:04:05;0.00;;;0.00;;
19223;SDS011;9746;47.180;9.776;2022-09-01T13:06:41;0.00;;;0.00;;
19223;SDS011;9746;47.180;9.776;2022-09-01T13:09:08;0.00;;;0.00;;
19223;SDS011;9746;47.180;9.776;2022-09-01T13:11:38;0.00;;;0.00;;
19223;SDS011;9746;47.180;9.776;2022-09-01T13:14:06;0.10;;;0.10;;
19223;SDS011;9746;47.180;9.776;2022-09-01T13:16:33;0.10;;;0.10;;
19223;SDS011;9746;47.180;9.776;2022-09-01T13:19:02;0.00;;;0.00;;
19223;SDS011;9746;47.180;9.776;2022-09-01T13:21:31;0.00;;;0.00;;
19223;SDS011;9746;47.180;9.776;2022-09-01T13:24:00;0.00;;;0.00;;
19223;SDS011;9746;47.180;9.776;2022-09-01T13:26:29;0.00;;;0.00;;
19223;SDS011;9746;47.180;9.776;2022-09-01T13:28:59;0.00;;;0.00;;
19223;SDS011;9746;47.180;9.776;2022-09-01T13:31:27;0.00;;;0.00;;
19223;SDS011;9746;47.180;9.776;2022-09-01T13:33:56;0.00;;;0.00;;
19223;SDS011;9746;47.180;9.776;2022-09-01T13:36:25;0.00;;;0.00;;
19223;SDS011;9746;47.180;9.776;2022-09-01T13:38:52;0.00;;;0.00;;
19223;SDS011;9746;47.180;9.776;2022-09-01T13:41:19;0.00;;;0.00;;
19223;SDS011;9746;47.180;9.776;2022-09-01T13:43:47;0.00;;;0.00;;
19223;SDS011;9746;47.180;9.776;2022-09-01T13:46:15;0.00;;;0.00;;
19223;SDS011;9746;47.180;9.776;2022-09-01T13:48:43;0.00;;;0.00;;
19223;SDS011;9746;47.180;9.776;2022-09-01T13:51:11;0.00;;;0.00;;
19223;SDS011;9746;47.180;9.776;2022-09-01T13:53:38;0.00;;;0.00;;
19223;SDS011;9746;47.180;9.776;2022-09-01T13:56:06;0.00;;;0.00;;
19223;SDS011;9746;47.180;9.776;2022-09-01T13:58:33;0.00;;;0.00;;
19223;SDS011;9746;47.180;9.776;2022-09-01T14:01:01;0.00;;;0.00;;
19223;SDS011;9746;47.180;9.776;2022-09-01T14:03:30;0.00;;;0.00;;
19223;SDS011;9746;47.180;9.776;2022-09-01T14:06:00;0.00;;;0.00;;
19223;SDS011;9746;47.180;9.776;2022-09-01T14:08:28;0.00;;;0.00;;
19223;SDS011;9746;47.180;9.776;2022-09-01T14:10:57;0.00;;;0.00;;
19223;SDS011;9746;47.180;9.776;2022-09-01T14:13:26;0.00;;;0.00;;
19223;SDS011;9746;47.180;9.776;2022-09-01T14:15:55;0.00;;;0.00;;
19223;SDS011;9746;47.180;9.776;2022-09-01T14:18:23;0.00;;;0.00;;
19223;SDS011;9746;47.180;9.776;2022-09-01T14:21:02;0.00;;;0.00;;
19223;SDS011;9746;47.180;9.776;2022-09-01T14:23:30;0.00;;;0.00;;
19223;SDS011;9746;47.180;9.776;2022-09-01T14:25:58;0.00;;;0.00;;
19223;SDS011;9746;47.180;9.776;2022-09-01T14:28:25;0.00;;;0.00;;
19223;SDS011;9746;47.180;9.776;2022-09-01T14:30:53;0.00;;;0.00;;
19223;SDS011;9746;47.180;9.776;2022-09-01T14:33:21;0.00;;;0.00;;
19223;SDS011;9746;47.180;9.776;2022-09-01T14:35:51;0.00;;;0.00;;
19223;SDS011;9746;47.180;9.776;2022-09-01T14:38:21;0.00;;;0.00;;
19223;SDS011;9746;47.180;9.776;2022-09-01T14:40:49;0.00;;;0.00;;
19223;SDS011;9746;47.180;9.776;2022-09-01T14:43:17;0.00;;;0.00;;
19223;SDS011;9746;47.180;9.776;2022-09-01T14:46:00;0.00;;;0.00;;
19223;SDS011;9746;47.180;9.776;2022-09-01T14:48:31;0.00;;;0.00;;
19223;SDS011;9746;47.180;9.776;2022-09-01T14:54:23;0.00;;;0.00;;
19223;SDS011;9746;47.180;9.776;2022-09-01T14:56:53;0.00;;;0.00;;
19223;SDS011;9746;47.180;9.776;2022-09-01T14:59:21;0.00;;;0.00;;
19223;SDS011;9746;47.180;9.776;2022-09-01T15:01:49;0.00;;;0.00;;
19223;SDS011;9746;47.180;9.776;2022-09-01T15:04:17;0.00;;;0.00;;
19223;SDS011;9746;47.180;9.776;2022-09-01T15:06:44;0.00;;;0.00;;
19223;SDS011;9746;47.180;9.776;2022-09-01T15:09:12;0.00;;;0.00;;
19223;SDS011;9746;47.180;9.776;2022-09-01T15:11:41;0.00;;;0.00;;
19223;SDS011;9746;47.180;9.776;2022-09-01T15:14:09;0.00;;;0.00;;
19223;SDS011;9746;47.180;9.776;2022-09-01T15:16:37;0.00;;;0.00;;
19223;SDS011;9746;47.180;9.776;2022-09-01T15:19:05;0.00;;;0.00;;
19223;SDS011;9746;47.180;9.776;2022-09-01T15:21:34;0.00;;;0.00;;
19223;SDS011;9746;47.180;9.776;2022-09-01T15:24:03;0.00;;;0.00;;
19223;SDS011;9746;47.180;9.776;2022-09-01T15:26:32;0.00;;;0.00;;
19223;SDS011;9746;47.180;9.776;2022-09-01T15:29:03;0.00;;;0.00;;
19223;SDS011;9746;47.180;9.776;2022-09-01T15:31:31;0.00;;;0.00;;
19223;SDS011;9746;47.180;9.776;2022-09-01T15:33:59;0.00;;;0.00;;
19223;SDS011;9746;47.180;9.776;2022-09-01T15:36:29;0.00;;;0.00;;
19223;SDS011;9746;47.180;9.776;2022-09-01T15:38:57;0.00;;;0.00;;
19223;SDS011;9746;47.180;9.776;2022-09-01T15:41:25;0.00;;;0.00;;
19223;SDS011;9746;47.180;9.776;2022-09-01T15:43:54;0.00;;;0.00;;
19223;SDS011;9746;47.180;9.776;2022-09-01T15:46:26;0.00;;;0.00;;
19223;SDS011;9746;47.180;9.776;2022-09-01T15:48:57;0.00;;;0.00;;
19223;SDS011;9746;47.180;9.776;2022-09-01T15:51:26;0.00;;;0.00;;
19223;SDS011;9746;47.180;9.776;2022-09-01T15:53:57;0.00;;;0.00;;
19223;SDS011;9746;47.180;9.776;2022-09-01T15:56:26;0.00;;;0.00;;
19223;SDS011;9746;47.180;9.776;2022-09-01T15:58:55;0.00;;;0.00;;
19223;SDS011;9746;47.180;9.776;2022-09-01T16:01:24;0.00;;;0.00;;
19223;SDS011;9746;47.180;9.776;2022-09-01T16:03:55;0.00;;;0.00;;
19223;SDS011;9746;47.180;9.776;2022-09-01T16:06:23;0.00;;;0.00;;
19223;SDS011;9746;47.180;9.776;2022-09-01T16:08:52;0.00;;;0.00;;
19223;SDS011;9746;47.180;9.776;2022-09-01T16:11:20;0.00;;;0.00;;
19223;SDS011;9746;47.180;9.776;2022-09-01T16:13:49;0.00;;;0.00;;
19223;SDS011;9746;47.180;9.776;2022-09-01T16:16:24;0.00;;;0.00;;
19223;SDS011;9746;47.180;9.776;2022-09-01T16:19:05;0.00;;;0.00;;
19223;SDS011;9746;47.180;9.776;2022-09-01T16:21:43;0.00;;;0.00;;
19223;SDS011;9746;47.180;9.776;2022-09-01T16:24:18;0.08;;;0.08;;
19223;SDS011;9746;47.180;9.776;2022-09-01T16:26:47;0.00;;;0.00;;
19223;SDS011;9746;47.180;9.776;2022-09-01T16:29:17;0.10;;;0.10;;
19223;SDS011;9746;47.180;9.776;2022-09-01T16:31:50;0.10;;;0.10;;
19223;SDS011;9746;47.180;9.776;2022-09-01T16:34:21;0.10;;;0.10;;
19223;SDS011;9746;47.180;9.776;2022-09-01T16:36:51;0.10;;;0.10;;
19223;SDS011;9746;47.180;9.776;2022-09-01T16:39:28;0.10;;;0.10;;
19223;SDS011;9746;47.180;9.776;2022-09-01T16:42:08;0.10;;;0.10;;
19223;SDS011;9746;47.180;9.776;2022-09-01T16:44:50;0.10;;;0.10;;
19223;SDS011;9746;47.180;9.776;2022-09-01T16:50:19;0.10;;;0.10;;
19223;SDS011;9746;47.180;9.776;2022-09-01T16:53:02;0.10;;;0.10;;
19223;SDS011;9746;47.180;9.776;2022-09-01T16:55:46;0.10;;;0.10;;
19223;SDS011;9746;47.180;9.776;2022-09-01T16:58:25;0.10;;;0.10;;
19223;SDS011;9746;47.180;9.776;2022-09-01T17:01:03;0.10;;;0.10;;
19223;SDS011;9746;47.180;9.776;2022-09-01T17:03:46;0.10;;;0.10;;
19223;SDS011;9746;47.180;9.776;2022-09-01T17:06:25;0.10;;;0.10;;
19223;SDS011;9746;47.180;9.776;2022-09-01T17:09:00;0.10;;;0.10;;
19223;SDS011;9746;47.180;9.776;2022-09-01T17:11:38;0.10;;;0.10;;
19223;SDS011;9746;47.180;9.776;2022-09-01T17:14:13;0.10;;;0.10;;
19223;SDS011;9746;47.180;9.776;2022-09-01T17:16:46;0.10;;;0.10;;
19223;SDS011;9746;47.180;9.776;2022-09-01T17:19:20;0.10;;;0.10;;
19223;SDS011;9746;47.180;9.776;2022-09-01T17:21:48;0.10;;;0.10;;
19223;SDS011;9746;47.180;9.776;2022-09-01T17:24:29;0.10;;;0.10;;
19223;SDS011;9746;47.180;9.776;2022-09-01T17:27:04;0.10;;;0.10;;
19223;SDS011;9746;47.180;9.776;2022-09-01T17:29:39;0.10;;;0.10;;
19223;SDS011;9746;47.180;9.776;2022-09-01T17:32:17;0.10;;;0.10;;
19223;SDS011;9746;47.180;9.776;2022-09-01T17:34:57;0.10;;;0.10;;
19223;SDS011;9746;47.180;9.776;2022-09-01T17:37:45;0.10;;;0.10;;
19223;SDS011;9746;47.180;9.776;2022-09-01T17:40:23;0.10;;;0.10;;
19223;SDS011;9746;47.180;9.776;2022-09-01T17:42:55;0.10;;;0.10;;
19223;SDS011;9746;47.180;9.776;2022-09-01T17:45:29;0.10;;;0.10;;
19223;SDS011;9746;47.180;9.776;2022-09-01T17:48:11;0.10;;;0.10;;
19223;SDS011;9746;47.180;9.776;2022-09-01T17:50:49;0.10;;;0.10;;
19223;SDS011;9746;47.180;9.776;2022-09-01T17:53:30;0.10;;;0.10;;
19223;SDS011;9746;47.180;9.776;2022-09-01T17:56:12;0.10;;;0.10;;
19223;SDS011;9746;47.180;9.776;2022-09-01T17:58:47;0.10;;;0.10;;
19223;SDS011;9746;47.180;9.776;2022-09-01T18:01:21;0.10;;;0.10;;
19223;SDS011;9746;47.180;9.776;2022-09-01T18:07:06;0.10;;;0.10;;
19223;SDS011;9746;47.180;9.776;2022-09-01T18:09:41;0.10;;;0.10;;
19223;SDS011;9746;47.180;9.776;2022-09-01T18:12:16;0.10;;;0.10;;
19223;SDS011;9746;47.180;9.776;2022-09-01T18:14:51;0.10;;;0.10;;
19223;SDS011;9746;47.180;9.776;2022-09-01T18:17:27;0.10;;;0.10;;
19223;SDS011;9746;47.180;9.776;2022-09-01T18:20:00;0.10;;;0.10;;
19223;SDS011;9746;47.180;9.776;2022-09-01T18:22:35;0.10;;;0.10;;
19223;SDS011;9746;47.180;9.776;2022-09-01T18:25:08;0.10;;;0.10;;
19223;SDS011;9746;47.180;9.776;2022-09-01T18:27:41;0.10;;;0.10;;
19223;SDS011;9746;47.180;9.776;2022-09-01T18:30:13;0.10;;;0.10;;
19223;SDS011;9746;47.180;9.776;2022-09-01T18:32:44;0.10;;;0.10;;
19223;SDS011;9746;47.180;9.776;2022-09-01T18:35:30;0.10;;;0.10;;
19223;SDS011;9746;47.180;9.776;2022-09-01T18:38:11;0.20;;;0.20;;
19223;SDS011;9746;47.180;9.776;2022-09-01T18:40:54;0.10;;;0.10;;
19223;SDS011;9746;47.180;9.776;2022-09-01T18:43:28;0.10;;;0.10;;
19223;SDS011;9746;47.180;9.776;2022-09-01T18:46:02;0.10;;;0.10;;
19223;SDS011;9746;47.180;9.776;2022-09-01T18:48:47;0.10;;;0.10;;
19223;SDS011;9746;47.180;9.776;2022-09-01T18:51:23;0.10;;;0.10;;
19223;SDS011;9746;47.180;9.776;2022-09-01T18:54:06;0.10;;;0.10;;
19223;SDS011;9746;47.180;9.776;2022-09-01T18:56:40;0.15;;;0.15;;
19223;SDS011;9746;47.180;9.776;2022-09-01T18:59:37;0.10;;;0.10;;
19223;SDS011;9746;47.180;9.776;2022-09-01T19:02:27;0.10;;;0.10;;
19223;SDS011;9746;47.180;9.776;2022-09-01T19:05:18;0.10;;;0.10;;
19223;SDS011;9746;47.180;9.776;2022-09-01T19:07:54;0.10;;;0.10;;
19223;SDS011;9746;47.180;9.776;2022-09-01T19:10:27;0.15;;;0.15;;
19223;SDS011;9746;47.180;9.776;2022-09-01T19:13:01;0.10;;;0.10;;
19223;SDS011;9746;47.180;9.776;2022-09-01T19:15:40;0.10;;;0.10;;
19223;SDS011;9746;47.180;9.776;2022-09-01T19:18:16;0.13;;;0.13;;
19223;SDS011;9746;47.180;9.776;2022-09-01T19:20:53;0.10;;;0.10;;
19223;SDS011;9746;47.180;9.776;2022-09-01T19:23:31;0.17;;;0.17;;
19223;SDS011;9746;47.180;9.776;2022-09-01T19:26:08;0.10;;;0.10;;
19223;SDS011;9746;47.180;9.776;2022-09-01T19:28:43;0.10;;;0.10;;
19223;SDS011;9746;47.180;9.776;2022-09-01T19:31:16;0.10;;;0.10;;
19223;SDS011;9746;47.180;9.776;2022-09-01T19:33:50;0.10;;;0.10;;
19223;SDS011;9746;47.180;9.776;2022-09-01T19:36:23;0.10;;;0.10;;
19223;SDS011;9746;47.180;9.776;2022-09-01T19:38:55;0.10;;;0.10;;
19223;SDS011;9746;47.180;9.776;2022-09-01T19:41:25;0.10;;;0.10;;
19223;SDS011;9746;47.180;9.776;2022-09-01T19:44:00;0.20;;;0.20;;
19223;SDS011;9746;47.180;9.776;2022-09-01T19:46:34;0.10;;;0.10;;
19223;SDS011;9746;47.180;9.776;2022-09-01T19:49:10;0.10;;;0.10;;
19223;SDS011;9746;47.180;9.776;2022-09-01T19:51:46;0.10;;;0.10;;
19223;SDS011;9746;47.180;9.776;2022-09-01T19:54:20;0.15;;;0.15;;
19223;SDS011;9746;47.180;9.776;2022-09-01T19:56:55;0.10;;;0.10;;
19223;SDS011;9746;47.180;9.776;2022-09-01T19:59:30;0.10;;;0.10;;
19223;SDS011;9746;47.180;9.776;2022-09-01T20:02:13;0.10;;;0.10;;
19223;SDS011;9746;47.180;9.776;2022-09-01T20:04:49;0.10;;;0.10;;
19223;SDS011;9746;47.180;9.776;2022-09-01T20:07:24;0.10;;;0.10;;
19223;SDS011;9746;47.180;9.776;2022-09-01T20:09:58;0.10;;;0.10;;
19223;SDS011;9746;47.180;9.776;2022-09-01T20:12:39;0.10;;;0.10;;
19223;SDS011;9746;47.180;9.776;2022-09-01T20:15:15;0.10;;;0.10;;
19223;SDS011;9746;47.180;9.776;2022-09-01T20:17:49;0.10;;;0.10;;
19223;SDS011;9746;47.180;9.776;2022-09-01T20:20:22;0.10;;;0.10;;
19223;SDS011;9746;47.180;9.776;2022-09-01T20:22:53;0.10;;;0.10;;
19223;SDS011;9746;47.180;9.776;2022-09-01T20:25:28;0.15;;;0.15;;
19223;SDS011;9746;47.180;9.776;2022-09-01T20:28:06;0.10;;;0.10;;
19223;SDS011;9746;47.180;9.776;2022-09-01T20:30:47;0.10;;;0.10;;
19223;SDS011;9746;47.180;9.776;2022-09-01T20:33:18;0.10;;;0.10;;
19223;SDS011;9746;47.180;9.776;2022-09-01T20:35:55;0.17;;;0.17;;
19223;SDS011;9746;47.180;9.776;2022-09-01T20:38:29;0.10;;;0.10;;
19223;SDS011;9746;47.180;9.776;2022-09-01T20:41:24;0.10;;;0.10;;
19223;SDS011;9746;47.180;9.776;2022-09-01T20:43:58;0.10;;;0.10;;
19223;SDS011;9746;47.180;9.776;2022-09-01T20:46:31;0.10;;;0.10;;
19223;SDS011;9746;47.180;9.776;2022-09-01T20:48:59;0.10;;;0.10;;
19223;SDS011;9746;47.180;9.776;2022-09-01T20:51:33;0.10;;;0.10;;
19223;SDS011;9746;47.180;9.776;2022-09-01T20:54:11;0.10;;;0.10;;
